Time;durP1;ratioP1;P1;durP2;ratioP2;P2;SDS_P1;SDS_P2;PMS_P1;PMS_P2;Temp;Humidity;BMP_temperature;BMP_pressure;BME280_temperature;BME280_humidity;BME280_pressure;Samples;Min_cycle;Max_cycle;Signal;HPM_P1;HPM_P2
2021/04/02 00:02:23;;;;;;;5.30;4.38;;;10.00;99.10;;;;;;5093136;28;20058;-71
2021/04/02 00:04:49;;;;;;;6.18;4.63;;;9.80;99.30;;;;;;5110797;28;20134;-71
2021/04/02 00:07:15;;;;;;;6.10;4.30;;;9.90;99.00;;;;;;5110942;28;20827;-70
2021/04/02 00:09:41;;;;;;;7.03;4.03;;;10.00;98.10;;;;;;5111118;28;20135;-71
2021/04/02 00:12:09;;;;;;;4.00;3.13;;;9.80;97.60;;;;;;5110909;28;20177;-70
2021/04/02 00:14:36;;;;;;;4.70;3.30;;;9.50;97.80;;;;;;5111098;28;20051;-71
2021/04/02 00:17:02;;;;;;;9.13;3.42;;;9.20;97.90;;;;;;5109777;28;20040;-71
2021/04/02 00:19:29;;;;;;;2.65;2.55;;;8.90;97.50;;;;;;5110680;28;20138;-71
2021/04/02 00:21:55;;;;;;;2.92;2.63;;;8.60;97.70;;;;;;5110625;28;20422;-71
2021/04/02 00:24:21;;;;;;;3.05;2.80;;;8.40;97.90;;;;;;5110926;28;20464;-71
2021/04/02 00:26:47;;;;;;;1.48;1.48;;;8.20;98.10;;;;;;5092357;28;20138;-71
2021/04/02 00:29:13;;;;;;;2.17;2.08;;;8.20;97.90;;;;;;5110607;28;20047;-70
2021/04/02 00:31:39;;;;;;;1.83;1.73;;;8.20;97.10;;;;;;5110376;28;20549;-71
2021/04/02 00:34:06;;;;;;;2.10;2.00;;;8.10;97.10;;;;;;5110882;28;20060;-71
2021/04/02 00:36:32;;;;;;;1.60;1.50;;;8.00;97.00;;;;;;5092286;28;20052;-71
2021/04/02 00:38:58;;;;;;;2.10;2.00;;;7.90;97.20;;;;;;5110052;28;20507;-70
2021/04/02 00:41:24;;;;;;;1.48;1.45;;;7.90;97.20;;;;;;5092065;28;20044;-70
2021/04/02 00:43:51;;;;;;;2.00;1.90;;;7.90;97.00;;;;;;5109960;28;20079;-71
2021/04/02 00:46:20;;;;;;;1.67;1.67;;;7.90;97.10;;;;;;5110086;28;20515;-72
2021/04/02 00:48:47;;;;;;;6.22;1.90;;;7.70;97.50;;;;;;5110195;28;20087;-72
2021/04/02 00:51:28;;;;;;;2.67;1.85;;;7.70;97.40;;;;;;5110043;28;20418;-72
2021/04/02 00:53:56;;;;;;;1.38;1.38;;;7.70;97.00;;;;;;5109955;28;20525;-70
2021/04/02 00:56:23;;;;;;;1.92;1.83;;;7.60;97.00;;;;;;5075398;28;20399;-71
2021/04/02 00:58:50;;;;;;;1.70;1.60;;;7.50;97.00;;;;;;5091872;28;20086;-71
2021/04/02 01:01:16;;;;;;;1.40;1.40;;;7.60;97.00;;;;;;5109843;28;20040;-70
2021/04/02 01:03:44;;;;;;;2.78;1.50;;;7.60;96.50;;;;;;5110083;28;20132;-72
2021/04/02 01:06:17;;;;;;;1.63;1.52;;;7.40;96.90;;;;;;5091816;28;20047;-71
2021/04/02 01:08:44;;;;;;;1.70;1.60;;;7.30;97.30;;;;;;5091495;28;20130;-73
2021/04/02 01:11:15;;;;;;;1.48;1.48;;;7.20;97.30;;;;;;5109917;28;20134;-71
2021/04/02 01:13:43;;;;;;;1.02;1.02;;;7.20;97.30;;;;;;5109889;28;20498;-71
2021/04/02 01:16:20;;;;;;;1.55;1.55;;;7.20;97.70;;;;;;5109640;28;20597;-70
2021/04/02 01:19:11;;;;;;;1.00;1.00;;;7.30;97.40;;;;;;5091440;28;20086;-71
2021/04/02 01:22:03;;;;;;;1.15;1.15;;;7.10;97.50;;;;;;5091199;28;20055;-72
2021/04/02 01:25:01;;;;;;;1.20;1.10;;;6.80;98.30;;;;;;5085976;28;20460;-71
2021/04/02 01:27:31;;;;;;;1.30;1.30;;;6.90;98.00;;;;;;5083010;28;20040;-72
2021/04/02 01:30:02;;;;;;;0.30;0.30;;;6.90;97.70;;;;;;5091131;28;20572;-72
2021/04/02 01:32:39;;;;;;;0.60;0.57;;;6.90;97.00;;;;;;5109333;28;20157;-72
2021/04/02 01:35:27;;;;;;;3.47;0.50;;;6.80;97.00;;;;;;5109369;28;20134;-72
2021/04/02 01:37:58;;;;;;;0.52;0.52;;;6.70;96.80;;;;;;5090649;28;20086;-72
2021/04/02 01:40:29;;;;;;;0.65;0.43;;;6.70;97.10;;;;;;5088053;28;20126;-72
2021/04/02 01:42:59;;;;;;;0.40;0.40;;;6.60;96.50;;;;;;5108393;28;20120;-72
2021/04/02 01:45:27;;;;;;;0.50;0.50;;;6.60;96.20;;;;;;5109402;28;20134;-72
2021/04/02 01:47:57;;;;;;;0.40;0.40;;;6.70;96.30;;;;;;5109163;28;20047;-72
2021/04/02 01:50:25;;;;;;;1.10;0.25;;;6.80;95.40;;;;;;5072483;28;20524;-72
2021/04/02 01:52:52;;;;;;;0.20;0.20;;;6.70;95.30;;;;;;5090810;28;20044;-72
2021/04/02 01:55:20;;;;;;;2.22;0.30;;;6.80;95.00;;;;;;5073160;28;20052;-72
2021/04/02 01:57:51;;;;;;;0.35;0.20;;;6.80;94.50;;;;;;5090286;28;20506;-72
2021/04/02 02:00:29;;;;;;;0.30;0.30;;;6.90;94.60;;;;;;5090599;28;20128;-72
2021/04/02 02:02:58;;;;;;;9.23;0.30;;;7.10;93.40;;;;;;5090802;28;20051;-72
2021/04/02 02:05:28;;;;;;;0.10;0.10;;;7.20;92.80;;;;;;5108629;28;20581;-72
2021/04/02 02:07:59;;;;;;;1.95;0.20;;;7.20;91.90;;;;;;5117569;27;20491;-72
2021/04/02 02:10:27;;;;;;;0.10;0.10;;;6.90;92.30;;;;;;5090263;28;20048;-72
2021/04/02 02:12:57;;;;;;;1.17;0.13;;;6.80;92.10;;;;;;5090445;28;20050;-72
2021/04/02 02:15:37;;;;;;;0.10;0.10;;;6.70;92.80;;;;;;5108808;28;20130;-72
2021/04/02 02:18:07;;;;;;;4.50;0.10;;;6.80;92.70;;;;;;5090381;28;20252;-71
2021/04/02 02:20:37;;;;;;;2.38;0.10;;;6.90;91.90;;;;;;5090009;28;20126;-72
2021/04/02 02:23:06;;;;;;;0.10;0.00;;;6.80;90.30;;;;;;5090643;28;20503;-72
2021/04/02 02:25:32;;;;;;;0.00;0.00;;;6.50;90.60;;;;;;5090491;28;20122;-72
2021/04/02 02:28:04;;;;;;;0.10;0.10;;;6.40;91.20;;;;;;5090597;28;20047;-72
2021/04/02 02:30:33;;;;;;;0.93;0.08;;;6.40;90.90;;;;;;5108788;28;20135;-73
2021/04/02 02:33:10;;;;;;;0.73;0.10;;;6.30;91.20;;;;;;5124161;27;20523;-73
2021/04/02 02:35:45;;;;;;;0.35;0.10;;;6.10;92.00;;;;;;5090231;28;20047;-72
2021/04/02 02:38:12;;;;;;;0.20;0.20;;;6.10;92.00;;;;;;5108288;28;20519;-72
2021/04/02 02:40:40;;;;;;;0.10;0.10;;;6.10;92.10;;;;;;5091858;28;20472;-72
2021/04/02 02:43:08;;;;;;;0.03;0.03;;;6.10;92.40;;;;;;5089943;28;20059;-72
2021/04/02 02:45:35;;;;;;;0.82;0.17;;;6.00;92.40;;;;;;5108318;28;20214;-72
2021/04/02 02:48:03;;;;;;;0.10;0.10;;;6.00;92.60;;;;;;5090155;28;20055;-72
2021/04/02 02:50:37;;;;;;;0.20;0.10;;;6.00;92.80;;;;;;5090354;28;20514;-72
2021/04/02 02:53:07;;;;;;;5.82;0.25;;;6.10;92.80;;;;;;5108706;28;20078;-72
2021/04/02 02:55:37;;;;;;;0.43;0.20;;;5.90;93.20;;;;;;5093945;28;20047;-72
2021/04/02 02:58:07;;;;;;;;;;;5.80;93.50;;;;;;5086604;28;20498;-73
2021/04/02 03:00:38;;;;;;;0.30;0.10;;;5.80;93.90;;;;;;5112486;28;19978;-73
2021/04/02 03:03:13;;;;;;;0.75;0.15;;;5.80;93.80;;;;;;5094243;28;20898;-73
2021/04/02 03:05:42;;;;;;;0.10;0.10;;;5.80;93.30;;;;;;5094169;28;20122;-72
2021/04/02 03:08:11;;;;;;;0.43;0.32;;;5.80;93.70;;;;;;5112036;28;20047;-72
2021/04/02 03:10:39;;;;;;;0.38;0.20;;;5.80;93.50;;;;;;5093784;28;20071;-72
2021/04/02 03:13:07;;;;;;;2.92;0.90;;;5.70;94.10;;;;;;5074488;28;20105;-72
2021/04/02 03:15:34;;;;;;;1.45;0.40;;;5.60;94.20;;;;;;5093960;28;20130;-72
2021/04/02 03:18:06;;;;;;;0.85;0.40;;;5.60;94.40;;;;;;5093720;28;20043;-72
2021/04/02 03:20:39;;;;;;;1.77;0.50;;;5.70;94.60;;;;;;5111989;28;20590;-72
2021/04/02 03:23:08;;;;;;;1.13;0.32;;;5.80;94.30;;;;;;5112249;28;20066;-72
2021/04/02 03:25:38;;;;;;;0.98;0.85;;;5.90;94.40;;;;;;5093667;28;20158;-72
2021/04/02 03:28:10;;;;;;;2.05;0.82;;;6.00;94.00;;;;;;5111886;28;20477;-72
2021/04/02 03:30:45;;;;;;;0.57;0.57;;;6.00;93.80;;;;;;5111642;28;20079;-72
2021/04/02 03:33:18;;;;;;;0.93;0.25;;;6.10;94.00;;;;;;5093444;28;20070;-72
2021/04/02 03:35:53;;;;;;;0.25;0.25;;;6.10;93.60;;;;;;5111559;28;20087;-71
2021/04/02 03:38:22;;;;;;;2.20;0.28;;;6.20;93.80;;;;;;5111507;28;20074;-72
2021/04/02 03:40:51;;;;;;;0.30;0.30;;;6.30;93.50;;;;;;5111419;28;20188;-72
2021/04/02 03:43:19;;;;;;;0.40;0.40;;;6.40;93.10;;;;;;5111607;28;20432;-72
2021/04/02 03:45:50;;;;;;;0.20;0.20;;;6.50;93.00;;;;;;5093464;28;20130;-73
2021/04/02 03:48:19;;;;;;;2.67;0.22;;;6.40;91.60;;;;;;5111498;28;20067;-72
2021/04/02 03:50:54;;;;;;;2.72;0.40;;;6.30;91.80;;;;;;5111399;28;20094;-72
2021/04/02 03:53:29;;;;;;;2.08;0.20;;;6.40;90.90;;;;;;5091401;28;20040;-72
2021/04/02 03:55:59;;;;;;;1.42;0.28;;;6.40;88.80;;;;;;5092967;28;20524;-72
2021/04/02 03:58:27;;;;;;;2.47;0.10;;;6.30;89.20;;;;;;5092484;28;20055;-72
2021/04/02 04:01:00;;;;;;;1.95;0.22;;;6.30;88.50;;;;;;5093072;28;20127;-72
2021/04/02 04:03:27;;;;;;;0.20;0.10;;;6.30;87.80;;;;;;5111296;28;20421;-72
2021/04/02 04:05:59;;;;;;;1.45;0.00;;;6.30;86.80;;;;;;5092053;28;20570;-72
2021/04/02 04:08:27;;;;;;;0.98;0.00;;;6.30;88.30;;;;;;5092768;28;20501;-72
2021/04/02 04:11:00;;;;;;;3.53;0.20;;;6.30;88.00;;;;;;5092455;28;20524;-72
2021/04/02 04:13:31;;;;;;;0.08;0.08;;;6.20;87.80;;;;;;5076150;28;20478;-72
2021/04/02 04:16:01;;;;;;;3.85;0.30;;;6.10;88.50;;;;;;5110931;28;20154;-72
2021/04/02 04:18:31;;;;;;;0.40;0.10;;;6.10;88.60;;;;;;5092554;28;20051;-72
2021/04/02 04:21:01;;;;;;;0.85;0.20;;;6.10;88.60;;;;;;5110760;28;20203;-72
2021/04/02 04:23:41;;;;;;;5.13;0.10;;;6.10;89.10;;;;;;5092667;28;20499;-72
2021/04/02 04:26:10;;;;;;;4.07;0.30;;;5.90;89.10;;;;;;5110444;28;20122;-71
2021/04/02 04:28:40;;;;;;;0.30;0.22;;;5.80;90.00;;;;;;5110798;28;20433;-72
2021/04/02 04:31:09;;;;;;;2.72;0.10;;;5.50;91.40;;;;;;5110749;28;20134;-72
2021/04/02 04:33:38;;;;;;;4.65;0.20;;;5.50;91.50;;;;;;5075682;28;20559;-72
2021/04/02 04:36:07;;;;;;;4.53;0.30;;;5.50;91.50;;;;;;5110619;28;20477;-73
2021/04/02 04:38:36;;;;;;;0.20;0.20;;;5.40;91.70;;;;;;5110640;28;20142;-72
2021/04/02 04:41:03;;;;;;;0.15;0.15;;;5.20;92.20;;;;;;5108762;28;20138;-71
2021/04/02 04:43:31;;;;;;;0.22;0.22;;;5.10;92.60;;;;;;5110282;28;20387;-73
2021/04/02 04:45:57;;;;;;;0.70;0.38;;;5.00;92.70;;;;;;5110098;28;20135;-72
2021/04/02 04:48:23;;;;;;;0.93;0.90;;;4.90;93.10;;;;;;5110188;28;20067;-72
2021/04/02 04:50:49;;;;;;;2.63;0.20;;;4.70;93.60;;;;;;5110068;28;20617;-72
2021/04/02 04:53:27;;;;;;;0.90;0.35;;;4.50;94.50;;;;;;5110169;28;20130;-72
2021/04/02 04:55:58;;;;;;;0.47;0.47;;;4.40;94.80;;;;;;5110240;28;20101;-72
2021/04/02 04:58:28;;;;;;;0.68;0.13;;;4.50;95.00;;;;;;5110027;28;20047;-72
2021/04/02 05:00:56;;;;;;;0.50;0.30;;;4.50;95.20;;;;;;5110131;28;20142;-72
2021/04/02 05:03:24;;;;;;;2.30;0.47;;;4.30;95.60;;;;;;5091616;28;20054;-72
2021/04/02 05:05:54;;;;;;;5.15;0.70;;;4.30;96.20;;;;;;5110442;28;20056;-72
2021/04/02 05:08:25;;;;;;;3.50;0.50;;;4.40;96.00;;;;;;5109786;28;20435;-73
2021/04/02 05:10:52;;;;;;;0.77;0.77;;;4.60;95.70;;;;;;5109800;28;20082;-72
2021/04/02 05:13:22;;;;;;;1.05;0.70;;;4.50;95.70;;;;;;5109493;28;20097;-72
2021/04/02 05:15:50;;;;;;;0.95;0.93;;;4.60;95.30;;;;;;5091678;28;20089;-72
2021/04/02 05:18:17;;;;;;;4.28;0.75;;;4.70;95.50;;;;;;5090232;28;20113;-72
2021/04/02 05:20:45;;;;;;;1.27;0.90;;;4.80;95.30;;;;;;5109460;28;20570;-73
2021/04/02 05:23:14;;;;;;;3.55;1.40;;;4.90;94.80;;;;;;5109629;28;20142;-72
2021/04/02 05:25:40;;;;;;;3.30;1.38;;;5.10;94.40;;;;;;5101452;28;20085;-72
2021/04/02 05:28:07;;;;;;;1.30;0.80;;;5.30;93.90;;;;;;5109235;28;20096;-72
2021/04/02 05:30:35;;;;;;;2.00;0.73;;;5.30;93.40;;;;;;5109671;28;20134;-72
2021/04/02 05:33:05;;;;;;;2.83;1.10;;;5.40;93.00;;;;;;5109174;28;20124;-73
2021/04/02 05:35:32;;;;;;;1.55;0.98;;;5.60;92.50;;;;;;5109571;28;20134;-72
2021/04/02 05:37:59;;;;;;;2.65;0.73;;;5.70;92.00;;;;;;5102621;28;20067;-75
2021/04/02 05:40:25;;;;;;;5.38;0.95;;;5.70;91.60;;;;;;5104251;27;20059;-72
2021/04/02 05:43:15;;;;;;;3.85;0.80;;;5.80;91.40;;;;;;5120256;27;20588;-72
2021/04/02 05:45:42;;;;;;;2.90;1.15;;;6.00;91.00;;;;;;5117296;27;20271;-73
2021/04/02 05:48:09;;;;;;;1.60;1.05;;;6.30;90.20;;;;;;5117076;27;20096;-69
2021/04/02 05:50:37;;;;;;;1.48;1.30;;;6.50;88.70;;;;;;5087919;28;20467;-72
2021/04/02 05:53:08;;;;;;;2.35;1.05;;;6.60;87.10;;;;;;5088231;28;20047;-70
2021/04/02 05:55:38;;;;;;;14.98;1.75;;;6.80;86.90;;;;;;5120417;27;20129;-68
2021/04/02 05:58:06;;;;;;;6.78;1.40;;;6.90;86.10;;;;;;5119684;27;20075;-71
2021/04/02 06:00:34;;;;;;;1.65;1.15;;;7.30;83.50;;;;;;5123341;27;20497;-70
2021/04/02 06:03:01;;;;;;;1.10;1.00;;;7.60;81.60;;;;;;5120041;27;20098;-71
2021/04/02 06:05:27;;;;;;;1.85;1.13;;;7.90;79.90;;;;;;5123556;27;20314;-67
2021/04/02 06:07:56;;;;;;;4.78;1.17;;;8.40;77.00;;;;;;5120339;27;20051;-67
2021/04/02 06:10:23;;;;;;;2.65;1.20;;;9.10;74.70;;;;;;5118945;27;20079;-71
2021/04/02 06:12:49;;;;;;;1.33;1.23;;;10.30;69.80;;;;;;5079591;27;20059;-68
2021/04/02 06:15:18;;;;;;;2.65;1.00;;;12.60;61.60;;;;;;5096883;28;20128;-68
2021/04/02 06:18:08;;;;;;;4.75;1.33;;;14.90;54.70;;;;;;5118079;27;20051;-68
2021/04/02 06:20:36;;;;;;;1.00;0.90;;;17.00;48.20;;;;;;5093253;28;20105;-68
2021/04/02 06:23:04;;;;;;;2.25;0.90;;;18.30;45.00;;;;;;5121828;27;20109;-67
2021/04/02 06:25:30;;;;;;;3.72;1.02;;;18.70;43.70;;;;;;5121299;27;20559;-70
2021/04/02 06:27:56;;;;;;;0.88;0.88;;;19.60;42.00;;;;;;5115895;27;20130;-65
2021/04/02 06:30:28;;;;;;;1.42;1.33;;;20.40;40.40;;;;;;5091741;28;20122;-63
2021/04/02 06:32:55;;;;;;;;;;;20.00;39.80;;;;;;5106624;28;20172;-71
2021/04/02 06:35:25;;;;;;;5.80;1.00;;;20.10;40.10;;;;;;5116530;27;20375;-69
2021/04/02 06:37:55;;;;;;;1.08;0.80;;;19.70;39.70;;;;;;5075091;28;20051;-68
2021/04/02 06:40:23;;;;;;;1.85;1.30;;;20.60;39.20;;;;;;5097265;28;20058;-67
2021/04/02 06:42:50;;;;;;;3.63;1.23;;;21.70;36.90;;;;;;5105156;28;20547;-67
2021/04/02 06:45:18;;;;;;;2.90;1.65;;;21.80;36.40;;;;;;5087435;28;20537;-66
2021/04/02 06:47:45;;;;;;;1.33;1.23;;;22.50;36.20;;;;;;5104589;28;20039;-69
2021/04/02 06:50:22;;;;;;;3.45;1.17;;;23.60;34.60;;;;;;5105461;28;20130;-70
2021/04/02 06:52:52;;;;;;;2.30;1.52;;;23.90;33.50;;;;;;5104022;28;20415;-67
2021/04/02 06:55:20;;;;;;;1.70;1.60;;;23.30;33.60;;;;;;5105974;28;20134;-65
2021/04/02 06:57:49;;;;;;;2.88;1.65;;;22.20;34.60;;;;;;5105792;28;20496;-72
2021/04/02 07:00:24;;;;;;;3.10;1.15;;;20.60;36.80;;;;;;5106380;28;20086;-68
2021/04/02 07:02:52;;;;;;;3.05;1.33;;;20.30;37.50;;;;;;5121373;28;20423;-67
2021/04/02 07:05:23;;;;;;;2.67;1.90;;;20.10;37.80;;;;;;5106053;28;20126;-66
2021/04/02 07:08:04;;;;;;;4.05;1.85;;;19.60;39.90;;;;;;5105701;28;20058;-67
2021/04/02 07:10:33;;;;;;;5.05;2.00;;;19.60;38.90;;;;;;5105383;28;20166;-68
2021/04/02 07:13:04;;;;;;;4.60;1.80;;;19.10;39.80;;;;;;5105695;28;20043;-67
2021/04/02 07:15:33;;;;;;;3.15;1.67;;;19.70;38.90;;;;;;5103212;28;20465;-67
2021/04/02 07:18:00;;;;;;;4.47;1.58;;;20.30;38.20;;;;;;5105305;28;20160;-66
2021/04/02 07:20:28;;;;;;;8.35;2.65;;;20.60;37.50;;;;;;5105782;28;20083;-68
2021/04/02 07:22:55;;;;;;;2.05;1.95;;;20.40;37.30;;;;;;5105482;28;20125;-66
2021/04/02 07:25:22;;;;;;;3.15;1.95;;;20.00;37.80;;;;;;5105162;28;20093;-67
2021/04/02 07:27:48;;;;;;;7.43;1.90;;;19.60;37.90;;;;;;5103789;28;20522;-68
2021/04/02 07:30:16;;;;;;;2.70;1.95;;;19.00;38.20;;;;;;5104976;28;20130;-66
2021/04/02 07:32:43;;;;;;;1.95;1.70;;;18.40;39.20;;;;;;5104420;28;20044;-67
2021/04/02 07:35:22;;;;;;;3.50;1.40;;;18.50;39.20;;;;;;5104908;28;20093;-68
2021/04/02 07:37:51;;;;;;;14.50;2.03;;;18.60;37.90;;;;;;5103285;28;20051;-69
2021/04/02 07:40:24;;;;;;;3.30;1.30;;;18.80;37.50;;;;;;5094511;28;20416;-69
2021/04/02 07:42:53;;;;;;;2.83;1.23;;;18.70;37.80;;;;;;5108736;28;20086;-70
2021/04/02 07:45:23;;;;;;;3.75;1.05;;;19.20;37.60;;;;;;5108035;28;20070;-70
2021/04/02 07:47:54;;;;;;;4.15;0.82;;;20.10;36.80;;;;;;5108282;28;20122;-69
2021/04/02 07:50:47;;;;;;;1.00;0.45;;;20.60;36.00;;;;;;5108563;28;20609;-70
2021/04/02 07:53:18;;;;;;;;;;;20.40;35.70;;;;;;5079183;28;20514;-70
2021/04/02 07:55:52;;;;;;;2.92;0.55;;;20.00;34.80;;;;;;5108661;28;20376;-67
2021/04/02 07:58:27;;;;;;;5.93;0.70;;;20.00;35.30;;;;;;5108285;28;20047;-69
2021/04/02 08:00:58;;;;;;;0.90;0.30;;;20.30;33.90;;;;;;5108778;28;20047;-71
2021/04/02 08:03:30;;;;;;;0.73;0.40;;;20.70;34.10;;;;;;5108782;28;20100;-68
2021/04/02 08:06:04;;;;;;;2.47;0.85;;;20.70;34.20;;;;;;5108245;28;20727;-68
2021/04/02 08:09:01;;;;;;;3.20;0.38;;;21.70;33.60;;;;;;5105024;28;20055;-70
2021/04/02 08:11:35;;;;;;;2.78;0.55;;;22.70;31.30;;;;;;5098409;28;20169;-63
2021/04/02 08:14:09;;;;;;;1.83;0.40;;;22.30;32.40;;;;;;5111064;28;20052;-66
2021/04/02 08:16:52;;;;;;;6.40;0.63;;;22.00;34.80;;;;;;5110789;28;20094;-70
2021/04/02 08:19:23;;;;;;;0.90;0.40;;;21.60;34.10;;;;;;5110747;28;20054;-72
2021/04/02 08:21:57;;;;;;;2.67;0.60;;;21.20;34.80;;;;;;5111115;28;20100;-65
2021/04/02 08:24:27;;;;;;;4.25;0.40;;;21.20;33.80;;;;;;5111119;28;20154;-65
2021/04/02 08:26:54;;;;;;;4.47;0.50;;;21.00;34.60;;;;;;5110922;28;20075;-80
2021/04/02 08:29:24;;;;;;;18.02;1.23;;;21.20;33.20;;;;;;5092568;28;20047;-75
2021/04/02 08:31:54;;;;;;;1.88;0.30;;;21.60;33.40;;;;;;5092784;28;20039;-67
2021/04/02 08:34:25;;;;;;;1.75;0.30;;;22.10;32.80;;;;;;5110891;28;20422;-72
2021/04/02 08:36:54;;;;;;;1.98;0.57;;;22.60;32.40;;;;;;5110582;28;20055;-72
2021/04/02 08:39:24;;;;;;;5.63;0.60;;;23.10;32.60;;;;;;5091713;28;20415;-75
2021/04/02 08:41:56;;;;;;;2.13;0.55;;;23.40;31.70;;;;;;5110792;28;20039;-67
2021/04/02 08:44:31;;;;;;;1.60;0.57;;;23.50;31.50;;;;;;5091952;28;20057;-67
2021/04/02 08:46:59;;;;;;;2.60;0.25;;;23.80;30.80;;;;;;5110635;28;20130;-76
2021/04/02 08:49:25;;;;;;;1.55;0.15;;;24.00;29.50;;;;;;5092119;28;20540;-74
2021/04/02 08:51:52;;;;;;;39.45;2.88;;;24.30;29.80;;;;;;5109951;28;20503;-72
2021/04/02 08:54:21;;;;;;;2.20;0.35;;;25.10;30.00;;;;;;5109789;28;20082;-74
2021/04/02 08:56:48;;;;;;;2.65;0.40;;;25.70;29.60;;;;;;5110283;28;20051;-75
2021/04/02 08:59:16;;;;;;;2.15;0.40;;;25.90;28.80;;;;;;5109224;28;20158;-68
2021/04/02 09:01:47;;;;;;;2.47;0.25;;;25.60;28.70;;;;;;5091652;28;20047;-66
2021/04/02 09:04:15;;;;;;;0.88;0.20;;;25.10;28.80;;;;;;5091293;28;20044;-65
2021/04/02 09:06:42;;;;;;;0.32;0.30;;;24.50;29.20;;;;;;5091513;28;20534;-65
2021/04/02 09:09:17;;;;;;;0.35;0.35;;;25.00;29.50;;;;;;5109455;28;20047;-66
2021/04/02 09:11:45;;;;;;;4.00;0.30;;;25.60;29.20;;;;;;5091501;28;20062;-66
2021/04/02 09:14:12;;;;;;;1.80;0.40;;;25.80;29.50;;;;;;5091219;28;20094;-66
2021/04/02 09:16:40;;;;;;;0.45;0.30;;;25.60;29.60;;;;;;5109202;28;20094;-65
2021/04/02 09:19:06;;;;;;;4.45;0.40;;;25.40;29.60;;;;;;5108873;28;20047;-66
2021/04/02 09:21:34;;;;;;;0.10;0.10;;;25.70;28.60;;;;;;5109425;28;20885;-65
2021/04/02 09:24:01;;;;;;;0.20;0.20;;;25.90;28.20;;;;;;5109247;28;20059;-66
2021/04/02 09:26:29;;;;;;;1.05;0.20;;;26.10;28.40;;;;;;5108944;28;20109;-66
2021/04/02 09:29:01;;;;;;;0.80;0.25;;;27.00;27.90;;;;;;5109431;28;20040;-67
2021/04/02 09:31:31;;;;;;;1.05;0.25;;;27.60;27.70;;;;;;5108964;28;20326;-67
2021/04/02 09:33:59;;;;;;;10.27;0.30;;;28.10;27.20;;;;;;5109166;28;20047;-66
2021/04/02 09:36:36;;;;;;;22.73;0.95;;;28.60;27.10;;;;;;5108273;28;20059;-66
2021/04/02 09:39:14;;;;;;;1.25;0.10;;;29.30;26.60;;;;;;5108891;28;20051;-67
2021/04/02 09:41:43;;;;;;;1.23;0.30;;;29.80;26.00;;;;;;5108766;28;20469;-67
2021/04/02 09:44:11;;;;;;;2.40;0.30;;;30.10;26.40;;;;;;5108750;28;20045;-67
2021/04/02 09:46:40;;;;;;;5.25;0.60;;;30.30;26.20;;;;;;5108716;28;20203;-67
2021/04/02 09:49:12;;;;;;;0.15;0.13;;;30.20;26.20;;;;;;5108697;28;20043;-66
2021/04/02 09:51:42;;;;;;;1.08;0.30;;;30.30;26.10;;;;;;5109150;28;20188;-66
2021/04/02 09:54:10;;;;;;;2.13;0.30;;;30.50;25.80;;;;;;5090729;28;20062;-66
2021/04/02 09:56:36;;;;;;;0.80;0.20;;;30.80;25.30;;;;;;5108554;28;20127;-67
2021/04/02 09:59:04;;;;;;;0.65;0.10;;;30.80;25.70;;;;;;5090415;28;20186;-67
2021/04/02 10:01:34;;;;;;;2.17;0.20;;;31.20;25.40;;;;;;5108528;28;20535;-67
2021/04/02 10:04:01;;;;;;;1.50;0.10;;;31.60;25.30;;;;;;5108026;28;20052;-67
2021/04/02 10:06:28;;;;;;;0.20;0.20;;;32.10;25.50;;;;;;5108539;28;20136;-66
2021/04/02 10:08:54;;;;;;;4.13;0.60;;;32.50;25.40;;;;;;5108473;28;20128;-68
2021/04/02 10:11:21;;;;;;;1.75;0.10;;;32.00;25.50;;;;;;5108574;28;20162;-67
2021/04/02 10:13:48;;;;;;;0.73;0.60;;;31.80;25.10;;;;;;5108260;28;20047;-67
2021/04/02 10:16:14;;;;;;;0.73;0.30;;;31.60;25.20;;;;;;5107965;28;20951;-67
2021/04/02 10:18:41;;;;;;;1.40;0.20;;;31.40;25.30;;;;;;5106739;28;20092;-66
2021/04/02 10:21:07;;;;;;;3.72;0.40;;;31.00;25.70;;;;;;5090313;28;20126;-67
2021/04/02 10:23:34;;;;;;;11.82;0.50;;;31.10;25.60;;;;;;5108169;28;20070;-67
2021/04/02 10:26:00;;;;;;;2.63;0.47;;;30.90;25.50;;;;;;5108219;28;20047;-66
2021/04/02 10:28:26;;;;;;;1.70;0.38;;;30.90;25.80;;;;;;5108359;28;20049;-66
2021/04/02 10:30:53;;;;;;;1.20;0.43;;;30.80;26.10;;;;;;5101462;28;20592;-69
2021/04/02 10:33:19;;;;;;;0.10;0.10;;;31.10;25.60;;;;;;5084799;28;20070;-69
2021/04/02 10:35:46;;;;;;;0.47;0.28;;;31.30;25.30;;;;;;5105178;28;20051;-67
2021/04/02 10:38:12;;;;;;;3.05;0.38;;;31.50;25.40;;;;;;5104729;28;20063;-70
2021/04/02 10:40:41;;;;;;;0.40;0.40;;;32.10;24.80;;;;;;5106206;28;20565;-71
2021/04/02 10:43:08;;;;;;;2.88;0.70;;;32.30;24.80;;;;;;5104906;28;20050;-72
2021/04/02 10:45:34;;;;;;;0.60;0.30;;;32.20;25.00;;;;;;5087668;28;20075;-72
2021/04/02 10:48:02;;;;;;;0.38;0.38;;;32.30;25.20;;;;;;5106012;28;20097;-72
2021/04/02 10:50:30;;;;;;;1.38;0.30;;;32.60;24.80;;;;;;5105782;28;20483;-71
2021/04/02 10:52:57;;;;;;;0.63;0.38;;;32.70;24.40;;;;;;5105173;28;20047;-70
2021/04/02 10:55:23;;;;;;;2.00;0.28;;;32.90;24.30;;;;;;5105602;28;20052;-71
2021/04/02 10:57:50;;;;;;;2.78;0.57;;;32.60;24.30;;;;;;5105549;28;20043;-69
2021/04/02 11:00:17;;;;;;;6.22;0.57;;;32.50;24.30;;;;;;5106018;28;20052;-68
2021/04/02 11:02:43;;;;;;;0.80;0.80;;;32.50;24.60;;;;;;5105403;28;20056;-69
2021/04/02 11:05:11;;;;;;;0.95;0.43;;;32.30;24.50;;;;;;5105014;28;20595;-69
2021/04/02 11:07:38;;;;;;;0.60;0.50;;;31.40;25.00;;;;;;5103665;28;20172;-71
2021/04/02 11:10:06;;;;;;;0.77;0.73;;;31.60;25.30;;;;;;5104825;28;20158;-70
2021/04/02 11:12:33;;;;;;;6.80;0.60;;;31.60;25.00;;;;;;5105317;28;20071;-70
2021/04/02 11:15:00;;;;;;;0.60;0.60;;;31.20;25.00;;;;;;5107629;28;20090;-70
2021/04/02 11:17:26;;;;;;;6.53;0.70;;;30.10;25.40;;;;;;5108773;28;20093;-70
2021/04/02 11:19:54;;;;;;;2.30;0.60;;;27.70;26.70;;;;;;5109232;28;20138;-71
2021/04/02 11:22:21;;;;;;;0.35;0.35;;;25.90;27.10;;;;;;5109193;28;20047;-69
2021/04/02 11:24:48;;;;;;;2.08;0.40;;;25.30;27.60;;;;;;5109001;28;20162;-68
2021/04/02 11:27:14;;;;;;;4.38;0.38;;;24.50;27.70;;;;;;5107596;27;20047;-67
2021/04/02 11:29:41;;;;;;;3.95;0.50;;;23.90;28.60;;;;;;5104126;28;20131;-70
2021/04/02 11:32:09;;;;;;;0.50;0.30;;;23.40;28.70;;;;;;5109147;28;20048;-69
2021/04/02 11:34:36;;;;;;;3.45;0.50;;;22.90;29.10;;;;;;5108678;28;20130;-68
2021/04/02 11:37:03;;;;;;;1.17;1.08;;;22.60;29.50;;;;;;5109160;28;20062;-69
2021/04/02 11:39:29;;;;;;;0.95;0.43;;;22.30;29.30;;;;;;5108105;28;20066;-69
2021/04/02 11:41:56;;;;;;;0.75;0.30;;;21.70;29.90;;;;;;5109225;28;20062;-70
2021/04/02 11:44:23;;;;;;;0.50;0.50;;;21.50;30.00;;;;;;5108889;28;20047;-70
2021/04/02 11:46:50;;;;;;;5.30;0.45;;;21.30;30.40;;;;;;5108964;28;20510;-70
2021/04/02 11:49:17;;;;;;;0.43;0.20;;;21.00;31.20;;;;;;5108837;28;20134;-71
2021/04/02 11:51:44;;;;;;;0.10;0.10;;;20.90;31.20;;;;;;5108698;28;20051;-70
2021/04/02 11:54:10;;;;;;;5.05;0.40;;;20.90;30.80;;;;;;5108272;28;20056;-70
2021/04/02 11:56:36;;;;;;;5.53;0.30;;;20.80;31.30;;;;;;5071820;28;20590;-71
2021/04/02 11:59:04;;;;;;;0.95;0.25;;;20.90;30.80;;;;;;5089662;28;20134;-69
2021/04/02 12:01:30;;;;;;;0.68;0.68;;;20.90;30.40;;;;;;5108095;28;20048;-63
2021/04/02 12:03:56;;;;;;;0.63;0.25;;;20.70;30.30;;;;;;5108574;28;20051;-63
2021/04/02 12:06:22;;;;;;;3.40;0.40;;;20.50;30.80;;;;;;5108086;28;20835;-63
2021/04/02 12:08:48;;;;;;;2.90;0.30;;;20.40;30.70;;;;;;5106162;28;20128;-63
2021/04/02 12:11:14;;;;;;;3.40;0.20;;;20.20;31.00;;;;;;5089955;28;20499;-64
2021/04/02 12:13:41;;;;;;;3.05;0.28;;;19.90;30.50;;;;;;5108363;28;20075;-63
2021/04/02 12:16:07;;;;;;;0.22;0.22;;;19.90;30.80;;;;;;5108010;28;20507;-63
2021/04/02 12:18:33;;;;;;;0.75;0.20;;;19.80;30.50;;;;;;5089551;28;20481;-62
2021/04/02 12:21:00;;;;;;;0.55;0.30;;;19.90;30.00;;;;;;5108374;28;20074;-62
2021/04/02 12:23:26;;;;;;;1.10;0.20;;;20.10;32.10;;;;;;5108259;28;20134;-64
2021/04/02 12:25:52;;;;;;;0.77;0.30;;;20.00;31.80;;;;;;5107759;28;20132;-63
2021/04/02 12:28:18;;;;;;;6.00;0.45;;;19.80;31.60;;;;;;5108541;28;20127;-63
2021/04/02 12:30:44;;;;;;;1.95;0.38;;;19.60;32.50;;;;;;5089605;28;20054;-62
2021/04/02 12:33:11;;;;;;;0.80;0.50;;;19.60;32.40;;;;;;5108614;28;20532;-62
2021/04/02 12:35:37;;;;;;;0.20;0.20;;;19.30;33.00;;;;;;5108810;28;20074;-62
2021/04/02 12:38:08;;;;;;;6.60;0.25;;;19.30;33.20;;;;;;5107940;28;20135;-63
2021/04/02 12:40:36;;;;;;;0.30;0.30;;;19.40;33.20;;;;;;5108365;28;20050;-63
2021/04/02 12:43:03;;;;;;;0.28;0.20;;;19.60;34.00;;;;;;5107753;28;20515;-63
2021/04/02 12:45:29;;;;;;;7.78;1.08;;;19.80;33.00;;;;;;5107620;28;20112;-63
2021/04/02 12:47:56;;;;;;;5.93;0.30;;;19.80;33.70;;;;;;5107708;28;20053;-63
2021/04/02 12:50:25;;;;;;;2.05;0.40;;;19.80;32.80;;;;;;5107332;28;20052;-63
2021/04/02 12:52:51;;;;;;;3.60;0.28;;;19.80;33.30;;;;;;5107683;28;20130;-63
2021/04/02 12:55:23;;;;;;;5.68;0.40;;;19.90;32.60;;;;;;5107713;28;20048;-63
2021/04/02 12:57:50;;;;;;;3.97;0.20;;;19.70;32.30;;;;;;5107409;28;21107;-63
2021/04/02 13:00:20;;;;;;;2.17;0.65;;;19.50;31.80;;;;;;5107262;28;20071;-63
2021/04/02 13:02:47;;;;;;;7.35;0.45;;;19.50;32.20;;;;;;5079197;28;20098;-63
2021/04/02 13:05:14;;;;;;;3.40;0.82;;;19.30;32.80;;;;;;5088844;28;20058;-63